sensor_id;sensor_type;location;lat;lon;timestamp;P1;durP1;ratioP1;P2;durP2;ratioP2
40288;SDS011;28991;52.028;5.526;2024-02-28T00:01:15;1.30;;;1.20;;
40288;SDS011;28991;52.028;5.526;2024-02-28T00:03:41;1.35;;;1.20;;
40288;SDS011;28991;52.028;5.526;2024-02-28T00:06:07;1.35;;;1.00;;
40288;SDS011;28991;52.028;5.526;2024-02-28T00:08:32;1.90;;;1.23;;
40288;SDS011;28991;52.028;5.526;2024-02-28T00:10:58;0.85;;;0.82;;
40288;SDS011;28991;52.028;5.526;2024-02-28T00:13:23;1.60;;;1.00;;
40288;SDS011;28991;52.028;5.526;2024-02-28T00:15:49;1.27;;;1.00;;
40288;SDS011;28991;52.028;5.526;2024-02-28T00:18:15;1.23;;;0.93;;
40288;SDS011;28991;52.028;5.526;2024-02-28T00:20:41;1.20;;;1.10;;
40288;SDS011;28991;52.028;5.526;2024-02-28T00:23:09;1.42;;;0.88;;
40288;SDS011;28991;52.028;5.526;2024-02-28T00:25:35;1.52;;;1.10;;
40288;SDS011;28991;52.028;5.526;2024-02-28T00:28:00;1.30;;;1.20;;
40288;SDS011;28991;52.028;5.526;2024-02-28T00:30:26;0.98;;;0.90;;
40288;SDS011;28991;52.028;5.526;2024-02-28T00:32:53;1.08;;;0.98;;
40288;SDS011;28991;52.028;5.526;2024-02-28T00:35:19;1.77;;;1.30;;
40288;SDS011;28991;52.028;5.526;2024-02-28T00:37:45;1.05;;;0.98;;
40288;SDS011;28991;52.028;5.526;2024-02-28T00:40:10;1.08;;;0.98;;
40288;SDS011;28991;52.028;5.526;2024-02-28T00:42:36;1.35;;;1.20;;
40288;SDS011;28991;52.028;5.526;2024-02-28T00:45:02;1.15;;;1.02;;
40288;SDS011;28991;52.028;5.526;2024-02-28T00:47:28;1.20;;;1.10;;
40288;SDS011;28991;52.028;5.526;2024-02-28T00:49:54;1.55;;;1.25;;
40288;SDS011;28991;52.028;5.526;2024-02-28T00:52:19;1.92;;;1.23;;
40288;SDS011;28991;52.028;5.526;2024-02-28T00:54:45;1.60;;;1.50;;
40288;SDS011;28991;52.028;5.526;2024-02-28T00:57:10;1.33;;;1.23;;
40288;SDS011;28991;52.028;5.526;2024-02-28T00:59:36;1.40;;;1.10;;
40288;SDS011;28991;52.028;5.526;2024-02-28T01:02:01;1.15;;;1.00;;
40288;SDS011;28991;52.028;5.526;2024-02-28T01:04:28;1.58;;;1.40;;
40288;SDS011;28991;52.028;5.526;2024-02-28T01:06:54;1.75;;;1.30;;
40288;SDS011;28991;52.028;5.526;2024-02-28T01:09:20;1.23;;;1.13;;
40288;SDS011;28991;52.028;5.526;2024-02-28T01:11:46;1.40;;;1.15;;
40288;SDS011;28991;52.028;5.526;2024-02-28T01:14:12;1.30;;;1.20;;
40288;SDS011;28991;52.028;5.526;2024-02-28T01:16:37;1.27;;;1.15;;
40288;SDS011;28991;52.028;5.526;2024-02-28T01:19:03;1.98;;;1.33;;
40288;SDS011;28991;52.028;5.526;2024-02-28T01:21:28;1.55;;;1.30;;
40288;SDS011;28991;52.028;5.526;2024-02-28T01:23:54;1.20;;;1.10;;
40288;SDS011;28991;52.028;5.526;2024-02-28T01:26:19;1.85;;;1.30;;
40288;SDS011;28991;52.028;5.526;2024-02-28T01:28:47;1.45;;;1.35;;
40288;SDS011;28991;52.028;5.526;2024-02-28T01:31:13;1.20;;;1.10;;
40288;SDS011;28991;52.028;5.526;2024-02-28T01:33:39;1.35;;;1.25;;
40288;SDS011;28991;52.028;5.526;2024-02-28T01:36:08;2.25;;;1.23;;
40288;SDS011;28991;52.028;5.526;2024-02-28T01:38:34;1.35;;;1.20;;
40288;SDS011;28991;52.028;5.526;2024-02-28T01:40:59;1.38;;;1.20;;
40288;SDS011;28991;52.028;5.526;2024-02-28T01:43:25;1.35;;;1.25;;
40288;SDS011;28991;52.028;5.526;2024-02-28T01:45:51;1.27;;;1.17;;
40288;SDS011;28991;52.028;5.526;2024-02-28T01:48:16;1.20;;;1.08;;
40288;SDS011;28991;52.028;5.526;2024-02-28T01:50:42;1.42;;;1.17;;
40288;SDS011;28991;52.028;5.526;2024-02-28T01:53:08;1.42;;;1.33;;
40288;SDS011;28991;52.028;5.526;2024-02-28T01:55:36;1.52;;;1.42;;
40288;SDS011;28991;52.028;5.526;2024-02-28T01:58:02;1.38;;;1.27;;
40288;SDS011;28991;52.028;5.526;2024-02-28T02:00:32;1.70;;;1.17;;
40288;SDS011;28991;52.028;5.526;2024-02-28T02:03:00;1.60;;;1.15;;
40288;SDS011;28991;52.028;5.526;2024-02-28T02:05:26;1.67;;;1.30;;
40288;SDS011;28991;52.028;5.526;2024-02-28T02:07:51;1.75;;;1.40;;
40288;SDS011;28991;52.028;5.526;2024-02-28T02:10:18;2.10;;;1.40;;
40288;SDS011;28991;52.028;5.526;2024-02-28T02:12:43;1.55;;;1.45;;
40288;SDS011;28991;52.028;5.526;2024-02-28T02:15:09;1.60;;;1.33;;
40288;SDS011;28991;52.028;5.526;2024-02-28T02:17:35;1.92;;;1.27;;
40288;SDS011;28991;52.028;5.526;2024-02-28T02:20:00;2.10;;;1.60;;
40288;SDS011;28991;52.028;5.526;2024-02-28T02:22:27;1.70;;;1.60;;
40288;SDS011;28991;52.028;5.526;2024-02-28T02:25:03;1.83;;;1.73;;
40288;SDS011;28991;52.028;5.526;2024-02-28T02:27:29;1.80;;;1.65;;
40288;SDS011;28991;52.028;5.526;2024-02-28T02:29:55;1.65;;;1.50;;
40288;SDS011;28991;52.028;5.526;2024-02-28T02:32:21;1.60;;;1.50;;
40288;SDS011;28991;52.028;5.526;2024-02-28T02:34:46;1.75;;;1.48;;
40288;SDS011;28991;52.028;5.526;2024-02-28T02:37:12;1.88;;;1.52;;
40288;SDS011;28991;52.028;5.526;2024-02-28T02:39:37;1.48;;;1.38;;
40288;SDS011;28991;52.028;5.526;2024-02-28T02:42:03;1.35;;;1.25;;
40288;SDS011;28991;52.028;5.526;2024-02-28T02:44:28;2.05;;;1.50;;
40288;SDS011;28991;52.028;5.526;2024-02-28T02:46:54;1.75;;;1.63;;
40288;SDS011;28991;52.028;5.526;2024-02-28T02:49:19;1.40;;;1.30;;
40288;SDS011;28991;52.028;5.526;2024-02-28T02:51:45;1.80;;;1.33;;
40288;SDS011;28991;52.028;5.526;2024-02-28T02:54:11;1.90;;;1.50;;
40288;SDS011;28991;52.028;5.526;2024-02-28T02:56:36;1.63;;;1.50;;
40288;SDS011;28991;52.028;5.526;2024-02-28T02:59:02;1.70;;;1.60;;
40288;SDS011;28991;52.028;5.526;2024-02-28T03:01:28;1.52;;;1.42;;
40288;SDS011;28991;52.028;5.526;2024-02-28T03:03:53;2.00;;;1.60;;
40288;SDS011;28991;52.028;5.526;2024-02-28T03:06:19;1.48;;;1.38;;
40288;SDS011;28991;52.028;5.526;2024-02-28T03:08:45;1.27;;;1.17;;
40288;SDS011;28991;52.028;5.526;2024-02-28T03:11:11;2.55;;;1.80;;
40288;SDS011;28991;52.028;5.526;2024-02-28T03:13:37;1.75;;;1.63;;
40288;SDS011;28991;52.028;5.526;2024-02-28T03:16:05;1.73;;;1.63;;
40288;SDS011;28991;52.028;5.526;2024-02-28T03:18:31;1.60;;;1.50;;
40288;SDS011;28991;52.028;5.526;2024-02-28T03:20:57;1.63;;;1.52;;
40288;SDS011;28991;52.028;5.526;2024-02-28T03:23:22;1.35;;;1.25;;
40288;SDS011;28991;52.028;5.526;2024-02-28T03:25:48;2.13;;;1.80;;
40288;SDS011;28991;52.028;5.526;2024-02-28T03:28:13;2.55;;;1.70;;
40288;SDS011;28991;52.028;5.526;2024-02-28T03:30:39;1.83;;;1.70;;
40288;SDS011;28991;52.028;5.526;2024-02-28T03:33:04;1.40;;;1.30;;
40288;SDS011;28991;52.028;5.526;2024-02-28T03:35:30;1.85;;;1.60;;
40288;SDS011;28991;52.028;5.526;2024-02-28T03:37:55;1.92;;;1.60;;
40288;SDS011;28991;52.028;5.526;2024-02-28T03:40:21;1.55;;;1.45;;
40288;SDS011;28991;52.028;5.526;2024-02-28T03:42:46;1.40;;;1.30;;
40288;SDS011;28991;52.028;5.526;2024-02-28T03:45:12;1.95;;;1.60;;
40288;SDS011;28991;52.028;5.526;2024-02-28T03:47:38;1.50;;;1.40;;
40288;SDS011;28991;52.028;5.526;2024-02-28T03:50:03;1.67;;;1.50;;
40288;SDS011;28991;52.028;5.526;2024-02-28T03:52:29;2.03;;;1.42;;
40288;SDS011;28991;52.028;5.526;2024-02-28T03:54:55;1.77;;;1.63;;
40288;SDS011;28991;52.028;5.526;2024-02-28T03:57:22;1.83;;;1.58;;
40288;SDS011;28991;52.028;5.526;2024-02-28T03:59:47;1.60;;;1.50;;
40288;SDS011;28991;52.028;5.526;2024-02-28T04:02:13;1.83;;;1.55;;
40288;SDS011;28991;52.028;5.526;2024-02-28T04:04:39;1.70;;;1.60;;
40288;SDS011;28991;52.028;5.526;2024-02-28T04:07:04;1.52;;;1.42;;
40288;SDS011;28991;52.028;5.526;2024-02-28T04:09:30;1.85;;;1.70;;
40288;SDS011;28991;52.028;5.526;2024-02-28T04:11:56;2.10;;;1.80;;
40288;SDS011;28991;52.028;5.526;2024-02-28T04:14:21;1.83;;;1.73;;
40288;SDS011;28991;52.028;5.526;2024-02-28T04:16:47;2.38;;;1.88;;
40288;SDS011;28991;52.028;5.526;2024-02-28T04:19:15;1.63;;;1.52;;
40288;SDS011;28991;52.028;5.526;2024-02-28T04:21:40;1.65;;;1.55;;
40288;SDS011;28991;52.028;5.526;2024-02-28T04:24:07;1.58;;;1.48;;
40288;SDS011;28991;52.028;5.526;2024-02-28T04:26:34;2.10;;;1.67;;
40288;SDS011;28991;52.028;5.526;2024-02-28T04:29:00;1.45;;;1.35;;
40288;SDS011;28991;52.028;5.526;2024-02-28T04:31:29;1.45;;;1.35;;
40288;SDS011;28991;52.028;5.526;2024-02-28T04:33:55;1.67;;;1.58;;
40288;SDS011;28991;52.028;5.526;2024-02-28T04:36:21;2.72;;;1.83;;
40288;SDS011;28991;52.028;5.526;2024-02-28T04:38:46;1.70;;;1.60;;
40288;SDS011;28991;52.028;5.526;2024-02-28T04:41:12;1.50;;;1.40;;
40288;SDS011;28991;52.028;5.526;2024-02-28T04:43:37;2.35;;;1.55;;
40288;SDS011;28991;52.028;5.526;2024-02-28T04:46:03;2.10;;;1.67;;
40288;SDS011;28991;52.028;5.526;2024-02-28T04:48:29;2.08;;;1.88;;
40288;SDS011;28991;52.028;5.526;2024-02-28T04:50:54;1.60;;;1.50;;
40288;SDS011;28991;52.028;5.526;2024-02-28T04:53:20;1.63;;;1.52;;
40288;SDS011;28991;52.028;5.526;2024-02-28T04:55:45;2.17;;;1.80;;
40288;SDS011;28991;52.028;5.526;2024-02-28T04:58:11;1.30;;;1.20;;
40288;SDS011;28991;52.028;5.526;2024-02-28T05:00:36;2.08;;;1.85;;
40288;SDS011;28991;52.028;5.526;2024-02-28T05:03:02;1.60;;;1.42;;
40288;SDS011;28991;52.028;5.526;2024-02-28T05:05:28;1.33;;;1.23;;
40288;SDS011;28991;52.028;5.526;2024-02-28T05:07:53;1.45;;;1.35;;
40288;SDS011;28991;52.028;5.526;2024-02-28T05:10:19;1.50;;;1.40;;
40288;SDS011;28991;52.028;5.526;2024-02-28T05:12:44;1.45;;;1.35;;
40288;SDS011;28991;52.028;5.526;2024-02-28T05:15:10;1.90;;;1.67;;
40288;SDS011;28991;52.028;5.526;2024-02-28T05:17:35;1.80;;;1.70;;
40288;SDS011;28991;52.028;5.526;2024-02-28T05:20:01;1.77;;;1.50;;
40288;SDS011;28991;52.028;5.526;2024-02-28T05:22:26;1.95;;;1.63;;
40288;SDS011;28991;52.028;5.526;2024-02-28T05:24:52;2.08;;;1.40;;
40288;SDS011;28991;52.028;5.526;2024-02-28T05:27:18;1.75;;;1.52;;
40288;SDS011;28991;52.028;5.526;2024-02-28T05:29:44;1.70;;;1.60;;
40288;SDS011;28991;52.028;5.526;2024-02-28T05:32:10;1.70;;;1.60;;
40288;SDS011;28991;52.028;5.526;2024-02-28T05:34:36;1.80;;;1.70;;
40288;SDS011;28991;52.028;5.526;2024-02-28T05:37:02;1.80;;;1.70;;
40288;SDS011;28991;52.028;5.526;2024-02-28T05:39:27;1.52;;;1.42;;
40288;SDS011;28991;52.028;5.526;2024-02-28T05:41:54;1.85;;;1.65;;
40288;SDS011;28991;52.028;5.526;2024-02-28T05:44:19;1.80;;;1.50;;
40288;SDS011;28991;52.028;5.526;2024-02-28T05:46:45;1.70;;;1.60;;
40288;SDS011;28991;52.028;5.526;2024-02-28T05:49:11;2.13;;;1.83;;
40288;SDS011;28991;52.028;5.526;2024-02-28T05:51:36;1.70;;;1.60;;
40288;SDS011;28991;52.028;5.526;2024-02-28T05:54:02;1.67;;;1.30;;
40288;SDS011;28991;52.028;5.526;2024-02-28T05:56:28;1.60;;;1.50;;
40288;SDS011;28991;52.028;5.526;2024-02-28T05:58:55;2.03;;;1.80;;
40288;SDS011;28991;52.028;5.526;2024-02-28T06:01:20;1.70;;;1.60;;
40288;SDS011;28991;52.028;5.526;2024-02-28T06:03:47;1.55;;;1.35;;
40288;SDS011;28991;52.028;5.526;2024-02-28T06:06:13;1.33;;;1.17;;
40288;SDS011;28991;52.028;5.526;2024-02-28T06:08:39;1.65;;;1.55;;
40288;SDS011;28991;52.028;5.526;2024-02-28T06:11:05;1.67;;;1.58;;
40288;SDS011;28991;52.028;5.526;2024-02-28T06:13:31;2.97;;;2.60;;
40288;SDS011;28991;52.028;5.526;2024-02-28T06:15:57;2.72;;;2.30;;
40288;SDS011;28991;52.028;5.526;2024-02-28T06:18:26;3.10;;;2.80;;
40288;SDS011;28991;52.028;5.526;2024-02-28T06:20:55;2.30;;;2.08;;
40288;SDS011;28991;52.028;5.526;2024-02-28T06:23:21;2.67;;;2.47;;
40288;SDS011;28991;52.028;5.526;2024-02-28T06:25:48;3.28;;;2.90;;
40288;SDS011;28991;52.028;5.526;2024-02-28T06:28:14;3.30;;;2.60;;
40288;SDS011;28991;52.028;5.526;2024-02-28T06:30:40;2.00;;;1.90;;
40288;SDS011;28991;52.028;5.526;2024-02-28T06:33:05;2.63;;;2.42;;
40288;SDS011;28991;52.028;5.526;2024-02-28T06:35:31;2.05;;;1.88;;
40288;SDS011;28991;52.028;5.526;2024-02-28T06:37:56;2.33;;;1.75;;
40288;SDS011;28991;52.028;5.526;2024-02-28T06:40:22;2.25;;;2.05;;
40288;SDS011;28991;52.028;5.526;2024-02-28T06:42:50;2.25;;;2.05;;
40288;SDS011;28991;52.028;5.526;2024-02-28T06:45:16;2.00;;;1.80;;
40288;SDS011;28991;52.028;5.526;2024-02-28T06:47:42;1.63;;;1.38;;
40288;SDS011;28991;52.028;5.526;2024-02-28T06:50:10;1.70;;;1.60;;
40288;SDS011;28991;52.028;5.526;2024-02-28T06:52:35;1.95;;;1.75;;
40288;SDS011;28991;52.028;5.526;2024-02-28T06:55:01;3.45;;;1.45;;
40288;SDS011;28991;52.028;5.526;2024-02-28T06:57:34;1.80;;;1.35;;
40288;SDS011;28991;52.028;5.526;2024-02-28T07:00:05;1.48;;;1.38;;
40288;SDS011;28991;52.028;5.526;2024-02-28T07:02:33;4.95;;;1.88;;
40288;SDS011;28991;52.028;5.526;2024-02-28T07:04:59;1.67;;;1.58;;
40288;SDS011;28991;52.028;5.526;2024-02-28T07:07:25;2.00;;;1.60;;
40288;SDS011;28991;52.028;5.526;2024-02-28T07:09:51;2.63;;;2.10;;
40288;SDS011;28991;52.028;5.526;2024-02-28T07:12:16;4.60;;;2.50;;
40288;SDS011;28991;52.028;5.526;2024-02-28T07:14:42;7.18;;;1.90;;
40288;SDS011;28991;52.028;5.526;2024-02-28T07:17:07;2.53;;;1.88;;
40288;SDS011;28991;52.028;5.526;2024-02-28T07:19:33;8.73;;;2.10;;
40288;SDS011;28991;52.028;5.526;2024-02-28T07:21:58;8.68;;;2.38;;
40288;SDS011;28991;52.028;5.526;2024-02-28T07:24:24;6.00;;;2.08;;
40288;SDS011;28991;52.028;5.526;2024-02-28T07:26:49;4.50;;;2.00;;
40288;SDS011;28991;52.028;5.526;2024-02-28T07:29:16;6.28;;;2.13;;
40288;SDS011;28991;52.028;5.526;2024-02-28T07:31:41;4.10;;;1.95;;
40288;SDS011;28991;52.028;5.526;2024-02-28T07:34:07;2.60;;;1.38;;
40288;SDS011;28991;52.028;5.526;2024-02-28T07:36:33;4.25;;;1.33;;
40288;SDS011;28991;52.028;5.526;2024-02-28T07:38:59;4.25;;;1.50;;
40288;SDS011;28991;52.028;5.526;2024-02-28T07:41:24;2.38;;;1.60;;
40288;SDS011;28991;52.028;5.526;2024-02-28T07:43:50;1.40;;;1.30;;
40288;SDS011;28991;52.028;5.526;2024-02-28T07:46:15;3.35;;;1.80;;
40288;SDS011;28991;52.028;5.526;2024-02-28T07:48:41;3.28;;;1.55;;
40288;SDS011;28991;52.028;5.526;2024-02-28T07:51:07;7.07;;;2.25;;
40288;SDS011;28991;52.028;5.526;2024-02-28T07:53:33;2.05;;;1.85;;
40288;SDS011;28991;52.028;5.526;2024-02-28T07:55:59;8.40;;;2.47;;
40288;SDS011;28991;52.028;5.526;2024-02-28T07:58:25;7.15;;;2.22;;
40288;SDS011;28991;52.028;5.526;2024-02-28T08:00:50;3.60;;;1.88;;
40288;SDS011;28991;52.028;5.526;2024-02-28T08:03:19;6.07;;;2.78;;
40288;SDS011;28991;52.028;5.526;2024-02-28T08:05:45;6.35;;;1.98;;
40288;SDS011;28991;52.028;5.526;2024-02-28T08:08:12;4.38;;;1.45;;
40288;SDS011;28991;52.028;5.526;2024-02-28T08:10:37;3.67;;;1.50;;
40288;SDS011;28991;52.028;5.526;2024-02-28T08:13:06;3.40;;;1.67;;
40288;SDS011;28991;52.028;5.526;2024-02-28T08:15:32;4.32;;;1.83;;
40288;SDS011;28991;52.028;5.526;2024-02-28T08:17:58;7.10;;;2.80;;
40288;SDS011;28991;52.028;5.526;2024-02-28T08:20:24;4.05;;;1.98;;
40288;SDS011;28991;52.028;5.526;2024-02-28T08:22:49;4.20;;;1.70;;
40288;SDS011;28991;52.028;5.526;2024-02-28T08:25:17;3.65;;;1.73;;
40288;SDS011;28991;52.028;5.526;2024-02-28T08:27:43;3.97;;;2.08;;
40288;SDS011;28991;52.028;5.526;2024-02-28T08:30:09;2.40;;;1.48;;
40288;SDS011;28991;52.028;5.526;2024-02-28T08:32:35;4.07;;;1.90;;
40288;SDS011;28991;52.028;5.526;2024-02-28T08:35:00;3.40;;;2.15;;
40288;SDS011;28991;52.028;5.526;2024-02-28T08:37:26;5.03;;;1.70;;
40288;SDS011;28991;52.028;5.526;2024-02-28T08:39:53;7.55;;;3.03;;
40288;SDS011;28991;52.028;5.526;2024-02-28T08:42:24;4.97;;;2.65;;
40288;SDS011;28991;52.028;5.526;2024-02-28T08:44:51;2.67;;;2.22;;
40288;SDS011;28991;52.028;5.526;2024-02-28T08:47:17;8.18;;;2.95;;
40288;SDS011;28991;52.028;5.526;2024-02-28T08:49:44;5.15;;;3.40;;
40288;SDS011;28991;52.028;5.526;2024-02-28T08:52:09;7.30;;;3.00;;
40288;SDS011;28991;52.028;5.526;2024-02-28T08:54:35;5.68;;;3.20;;
40288;SDS011;28991;52.028;5.526;2024-02-28T08:57:00;5.90;;;3.40;;
40288;SDS011;28991;52.028;5.526;2024-02-28T08:59:26;10.48;;;3.80;;
40288;SDS011;28991;52.028;5.526;2024-02-28T09:01:52;7.63;;;4.22;;
40288;SDS011;28991;52.028;5.526;2024-02-28T09:04:17;4.90;;;3.28;;
40288;SDS011;28991;52.028;5.526;2024-02-28T09:06:43;8.40;;;3.10;;
40288;SDS011;28991;52.028;5.526;2024-02-28T09:09:08;4.32;;;3.10;;
40288;SDS011;28991;52.028;5.526;2024-02-28T09:11:34;4.13;;;3.30;;
40288;SDS011;28991;52.028;5.526;2024-02-28T09:14:00;3.75;;;3.08;;
40288;SDS011;28991;52.028;5.526;2024-02-28T09:16:26;6.82;;;3.38;;
40288;SDS011;28991;52.028;5.526;2024-02-28T09:18:51;6.15;;;3.17;;
40288;SDS011;28991;52.028;5.526;2024-02-28T09:21:17;6.20;;;3.13;;
40288;SDS011;28991;52.028;5.526;2024-02-28T09:23:42;4.38;;;2.95;;
40288;SDS011;28991;52.028;5.526;2024-02-28T09:26:08;6.55;;;3.70;;
40288;SDS011;28991;52.028;5.526;2024-02-28T09:28:33;5.38;;;3.05;;
40288;SDS011;28991;52.028;5.526;2024-02-28T09:30:59;4.93;;;3.13;;
40288;SDS011;28991;52.028;5.526;2024-02-28T09:33:24;3.17;;;2.85;;
40288;SDS011;28991;52.028;5.526;2024-02-28T09:35:50;5.88;;;3.28;;
40288;SDS011;28991;52.028;5.526;2024-02-28T09:38:16;4.85;;;3.60;;
40288;SDS011;28991;52.028;5.526;2024-02-28T09:40:42;4.90;;;3.50;;
40288;SDS011;28991;52.028;5.526;2024-02-28T09:43:15;4.22;;;3.55;;
40288;SDS011;28991;52.028;5.526;2024-02-28T09:45:44;6.32;;;3.35;;
40288;SDS011;28991;52.028;5.526;2024-02-28T09:48:10;8.32;;;3.78;;
40288;SDS011;28991;52.028;5.526;2024-02-28T09:50:36;5.07;;;3.78;;
40288;SDS011;28991;52.028;5.526;2024-02-28T09:53:03;4.70;;;3.95;;
40288;SDS011;28991;52.028;5.526;2024-02-28T09:55:29;3.45;;;3.03;;
40288;SDS011;28991;52.028;5.526;2024-02-28T09:57:56;5.05;;;3.15;;
40288;SDS011;28991;52.028;5.526;2024-02-28T10:00:23;5.53;;;3.28;;
40288;SDS011;28991;52.028;5.526;2024-02-28T10:02:51;6.43;;;3.10;;
40288;SDS011;28991;52.028;5.526;2024-02-28T10:05:18;7.47;;;3.78;;
40288;SDS011;28991;52.028;5.526;2024-02-28T10:07:45;8.48;;;3.92;;
40288;SDS011;28991;52.028;5.526;2024-02-28T10:10:12;13.10;;;4.30;;
40288;SDS011;28991;52.028;5.526;2024-02-28T10:12:41;5.93;;;3.60;;
40288;SDS011;28991;52.028;5.526;2024-02-28T10:15:07;4.15;;;3.67;;
40288;SDS011;28991;52.028;5.526;2024-02-28T10:17:34;4.00;;;3.10;;
40288;SDS011;28991;52.028;5.526;2024-02-28T10:20:00;7.63;;;3.13;;
40288;SDS011;28991;52.028;5.526;2024-02-28T10:22:25;5.45;;;3.08;;
40288;SDS011;28991;52.028;5.526;2024-02-28T10:24:56;4.38;;;3.47;;
40288;SDS011;28991;52.028;5.526;2024-02-28T10:27:23;5.32;;;3.50;;
40288;SDS011;28991;52.028;5.526;2024-02-28T10:29:49;4.53;;;3.30;;
40288;SDS011;28991;52.028;5.526;2024-02-28T10:32:15;4.75;;;3.47;;
40288;SDS011;28991;52.028;5.526;2024-02-28T10:34:40;4.28;;;3.67;;
40288;SDS011;28991;52.028;5.526;2024-02-28T10:37:06;6.75;;;4.15;;
40288;SDS011;28991;52.028;5.526;2024-02-28T10:39:33;4.90;;;4.28;;
40288;SDS011;28991;52.028;5.526;2024-02-28T10:42:00;9.23;;;4.90;;
40288;SDS011;28991;52.028;5.526;2024-02-28T10:44:27;6.40;;;4.82;;
40288;SDS011;28991;52.028;5.526;2024-02-28T10:46:54;5.15;;;3.63;;
40288;SDS011;28991;52.028;5.526;2024-02-28T10:49:20;7.63;;;4.60;;
40288;SDS011;28991;52.028;5.526;2024-02-28T10:51:46;8.48;;;4.80;;
40288;SDS011;28991;52.028;5.526;2024-02-28T10:54:14;5.72;;;4.30;;
40288;SDS011;28991;52.028;5.526;2024-02-28T10:56:40;4.25;;;3.85;;
40288;SDS011;28991;52.028;5.526;2024-02-28T10:59:07;6.97;;;4.47;;
40288;SDS011;28991;52.028;5.526;2024-02-28T11:01:35;11.45;;;4.70;;
40288;SDS011;28991;52.028;5.526;2024-02-28T11:04:02;4.30;;;3.90;;
40288;SDS011;28991;52.028;5.526;2024-02-28T11:06:29;4.93;;;3.63;;
40288;SDS011;28991;52.028;5.526;2024-02-28T11:08:54;5.13;;;3.50;;
40288;SDS011;28991;52.028;5.526;2024-02-28T11:11:21;4.97;;;3.80;;
40288;SDS011;28991;52.028;5.526;2024-02-28T11:13:57;5.93;;;3.80;;
40288;SDS011;28991;52.028;5.526;2024-02-28T11:16:32;3.75;;;3.42;;
40288;SDS011;28991;52.028;5.526;2024-02-28T11:18:58;5.55;;;4.15;;
40288;SDS011;28991;52.028;5.526;2024-02-28T11:21:28;8.13;;;5.15;;
40288;SDS011;28991;52.028;5.526;2024-02-28T11:23:57;5.45;;;4.35;;
40288;SDS011;28991;52.028;5.526;2024-02-28T11:26:24;5.45;;;3.85;;
40288;SDS011;28991;52.028;5.526;2024-02-28T11:28:51;5.03;;;3.45;;
40288;SDS011;28991;52.028;5.526;2024-02-28T11:31:16;4.38;;;2.70;;
40288;SDS011;28991;52.028;5.526;2024-02-28T11:33:43;3.50;;;3.03;;
40288;SDS011;28991;52.028;5.526;2024-02-28T11:36:11;4.07;;;2.65;;
40288;SDS011;28991;52.028;5.526;2024-02-28T11:38:38;6.20;;;3.15;;
40288;SDS011;28991;52.028;5.526;2024-02-28T11:41:04;4.15;;;3.03;;
40288;SDS011;28991;52.028;5.526;2024-02-28T11:43:33;3.85;;;3.08;;
40288;SDS011;28991;52.028;5.526;2024-02-28T11:46:07;3.72;;;3.30;;
40288;SDS011;28991;52.028;5.526;2024-02-28T11:48:34;5.78;;;3.50;;
40288;SDS011;28991;52.028;5.526;2024-02-28T11:51:00;4.00;;;3.50;;
40288;SDS011;28991;52.028;5.526;2024-02-28T11:53:25;5.93;;;3.40;;
40288;SDS011;28991;52.028;5.526;2024-02-28T11:55:54;5.05;;;3.25;;
40288;SDS011;28991;52.028;5.526;2024-02-28T11:58:23;3.75;;;3.38;;
40288;SDS011;28991;52.028;5.526;2024-02-28T12:00:48;4.95;;;4.10;;
40288;SDS011;28991;52.028;5.526;2024-02-28T12:03:21;6.05;;;3.40;;
40288;SDS011;28991;52.028;5.526;2024-02-28T12:05:48;4.18;;;3.75;;
40288;SDS011;28991;52.028;5.526;2024-02-28T12:08:14;4.47;;;3.67;;
40288;SDS011;28991;52.028;5.526;2024-02-28T12:10:40;6.45;;;4.35;;
40288;SDS011;28991;52.028;5.526;2024-02-28T12:13:06;7.22;;;4.10;;
40288;SDS011;28991;52.028;5.526;2024-02-28T12:15:32;5.82;;;4.63;;
40288;SDS011;28991;52.028;5.526;2024-02-28T12:17:58;8.57;;;3.92;;
40288;SDS011;28991;52.028;5.526;2024-02-28T12:20:24;5.07;;;3.65;;
40288;SDS011;28991;52.028;5.526;2024-02-28T12:22:49;5.68;;;3.92;;
40288;SDS011;28991;52.028;5.526;2024-02-28T12:25:15;6.35;;;3.55;;
40288;SDS011;28991;52.028;5.526;2024-02-28T12:27:40;4.50;;;3.30;;
40288;SDS011;28991;52.028;5.526;2024-02-28T12:30:07;5.07;;;3.33;;
40288;SDS011;28991;52.028;5.526;2024-02-28T12:32:33;5.78;;;3.90;;
40288;SDS011;28991;52.028;5.526;2024-02-28T12:34:58;5.82;;;3.72;;
40288;SDS011;28991;52.028;5.526;2024-02-28T12:37:24;12.02;;;4.13;;
40288;SDS011;28991;52.028;5.526;2024-02-28T12:39:49;4.53;;;3.55;;
40288;SDS011;28991;52.028;5.526;2024-02-28T12:42:16;7.80;;;4.22;;
40288;SDS011;28991;52.028;5.526;2024-02-28T12:44:42;6.03;;;4.38;;
40288;SDS011;28991;52.028;5.526;2024-02-28T12:47:11;6.75;;;3.72;;
40288;SDS011;28991;52.028;5.526;2024-02-28T12:49:37;5.90;;;4.43;;
40288;SDS011;28991;52.028;5.526;2024-02-28T12:52:03;8.07;;;4.82;;
40288;SDS011;28991;52.028;5.526;2024-02-28T12:54:29;4.50;;;4.00;;
40288;SDS011;28991;52.028;5.526;2024-02-28T12:56:55;8.07;;;4.40;;
40288;SDS011;28991;52.028;5.526;2024-02-28T12:59:20;5.00;;;4.50;;
40288;SDS011;28991;52.028;5.526;2024-02-28T13:01:46;8.43;;;4.68;;
40288;SDS011;28991;52.028;5.526;2024-02-28T13:04:13;7.30;;;5.35;;
40288;SDS011;28991;52.028;5.526;2024-02-28T13:06:41;5.03;;;4.50;;
40288;SDS011;28991;52.028;5.526;2024-02-28T13:09:07;4.30;;;3.85;;
40288;SDS011;28991;52.028;5.526;2024-02-28T13:11:37;4.68;;;3.80;;
40288;SDS011;28991;52.028;5.526;2024-02-28T13:14:03;4.35;;;3.60;;
40288;SDS011;28991;52.028;5.526;2024-02-28T13:16:29;7.35;;;5.03;;
40288;SDS011;28991;52.028;5.526;2024-02-28T13:18:55;10.02;;;4.43;;
40288;SDS011;28991;52.028;5.526;2024-02-28T13:21:21;6.00;;;3.88;;
40288;SDS011;28991;52.028;5.526;2024-02-28T13:23:46;3.95;;;3.55;;
40288;SDS011;28991;52.028;5.526;2024-02-28T13:26:12;5.32;;;3.63;;
40288;SDS011;28991;52.028;5.526;2024-02-28T13:28:44;3.95;;;3.33;;
40288;SDS011;28991;52.028;5.526;2024-02-28T13:31:09;4.65;;;3.80;;
40288;SDS011;28991;52.028;5.526;2024-02-28T13:33:35;4.50;;;3.22;;
40288;SDS011;28991;52.028;5.526;2024-02-28T13:36:02;3.30;;;3.00;;
40288;SDS011;28991;52.028;5.526;2024-02-28T13:38:28;3.60;;;3.22;;
40288;SDS011;28991;52.028;5.526;2024-02-28T13:40:54;3.25;;;3.00;;
40288;SDS011;28991;52.028;5.526;2024-02-28T13:43:19;3.65;;;3.35;;
40288;SDS011;28991;52.028;5.526;2024-02-28T13:45:49;4.45;;;3.35;;
40288;SDS011;28991;52.028;5.526;2024-02-28T13:48:20;3.38;;;3.05;;
40288;SDS011;28991;52.028;5.526;2024-02-28T13:50:47;3.03;;;2.72;;
40288;SDS011;28991;52.028;5.526;2024-02-28T13:53:13;3.88;;;3.45;;
40288;SDS011;28991;52.028;5.526;2024-02-28T13:55:40;3.22;;;2.70;;
40288;SDS011;28991;52.028;5.526;2024-02-28T13:58:10;3.05;;;2.63;;
40288;SDS011;28991;52.028;5.526;2024-02-28T14:00:40;4.65;;;2.80;;
40288;SDS011;28991;52.028;5.526;2024-02-28T14:03:06;3.35;;;2.33;;
40288;SDS011;28991;52.028;5.526;2024-02-28T14:05:32;4.63;;;2.53;;
40288;SDS011;28991;52.028;5.526;2024-02-28T14:07:58;2.92;;;2.38;;
40288;SDS011;28991;52.028;5.526;2024-02-28T14:10:24;4.80;;;3.35;;
40288;SDS011;28991;52.028;5.526;2024-02-28T14:12:50;5.70;;;3.33;;
40288;SDS011;28991;52.028;5.526;2024-02-28T14:15:19;3.10;;;2.80;;
40288;SDS011;28991;52.028;5.526;2024-02-28T14:17:45;5.28;;;3.25;;
40288;SDS011;28991;52.028;5.526;2024-02-28T14:20:11;3.08;;;2.65;;
40288;SDS011;28991;52.028;5.526;2024-02-28T14:22:37;2.72;;;2.28;;
40288;SDS011;28991;52.028;5.526;2024-02-28T14:25:06;2.45;;;2.00;;
40288;SDS011;28991;52.028;5.526;2024-02-28T14:27:42;3.13;;;2.78;;
40288;SDS011;28991;52.028;5.526;2024-02-28T14:30:09;3.22;;;2.13;;
40288;SDS011;28991;52.028;5.526;2024-02-28T14:32:36;2.42;;;2.22;;
40288;SDS011;28991;52.028;5.526;2024-02-28T14:35:05;4.93;;;2.25;;
40288;SDS011;28991;52.028;5.526;2024-02-28T14:37:32;2.97;;;2.03;;
40288;SDS011;28991;52.028;5.526;2024-02-28T14:39:59;2.65;;;2.00;;
40288;SDS011;28991;52.028;5.526;2024-02-28T14:42:26;3.17;;;2.47;;